Time;durP1;ratioP1;P1;durP2;ratioP2;P2;SDS_P1;SDS_P2;PMS_P1;PMS_P2;Temp;Humidity;BMP_temperature;BMP_pressure;BME280_temperature;BME280_humidity;BME280_pressure;Samples;Min_cycle;Max_cycle;Signal;HPM_P1;HPM_P2
2022/07/17 00:01:09;;;;;;;6.25;2.40;;;;;;;9.89;69.74;99618.84;4137700;28;20046;-69
2022/07/17 00:03:16;;;;;;;4.00;2.88;;;;;;;9.70;70.32;99623.00;4139576;28;20128;-69
2022/07/17 00:05:16;;;;;;;3.28;2.30;;;;;;;9.62;70.86;99621.16;4139040;28;20408;-69
2022/07/17 00:07:17;;;;;;;5.05;2.63;;;;;;;9.49;71.08;99625.03;4138770;28;20046;-69
2022/07/17 00:09:17;;;;;;;5.40;2.10;;;;;;;9.42;72.23;99624.78;4137578;28;20045;-69
2022/07/17 00:11:17;;;;;;;5.97;2.38;;;;;;;9.35;71.74;99628.13;4138926;28;20393;-69
2022/07/17 00:13:18;;;;;;;6.82;2.25;;;;;;;9.22;73.76;99621.75;4137808;28;20054;-69
2022/07/17 00:15:19;;;;;;;6.68;2.33;;;;;;;9.12;74.09;99621.38;4138334;28;20223;-69
2022/07/17 00:17:21;;;;;;;9.43;2.53;;;;;;;9.06;74.73;99631.03;4138751;28;20054;-69
2022/07/17 00:19:21;;;;;;;4.97;2.58;;;;;;;9.01;74.28;99632.03;4137256;28;20046;-69
2022/07/17 00:21:31;;;;;;;3.65;1.85;;;;;;;8.94;74.41;99626.28;4137372;28;20056;-69
2022/07/17 00:23:31;;;;;;;4.85;2.00;;;;;;;8.93;73.41;99625.44;4137380;28;20070;-69
2022/07/17 00:25:32;;;;;;;6.30;2.50;;;;;;;8.88;73.51;99628.44;4136792;28;20065;-69
2022/07/17 00:27:32;;;;;;;4.10;2.15;;;;;;;8.78;75.29;99626.09;4137210;28;20054;-69
2022/07/17 00:29:33;;;;;;;3.03;2.00;;;;;;;8.71;74.49;99626.63;4134835;28;20514;-69
2022/07/17 00:31:33;;;;;;;5.53;2.10;;;;;;;8.66;74.99;99628.78;4136140;28;20049;-69
2022/07/17 00:33:34;;;;;;;3.35;2.08;;;;;;;8.72;74.72;99624.69;4136995;28;20133;-68
2022/07/17 00:35:34;;;;;;;5.00;2.38;;;;;;;8.71;76.35;99623.88;4134896;28;20209;-69
2022/07/17 00:37:40;;;;;;;6.65;2.42;;;;;;;8.74;76.79;99625.16;4134800;28;20119;-69
2022/07/17 00:39:41;;;;;;;4.88;2.47;;;;;;;8.70;77.84;99624.22;4134694;28;20431;-69
2022/07/17 00:41:43;;;;;;;13.50;3.33;;;;;;;8.68;77.76;99629.25;4135025;28;20076;-69
2022/07/17 00:43:45;;;;;;;;;;;;;;;8.70;77.91;99632.50;4135684;28;20046;-69
2022/07/17 00:45:53;;;;;;;3.83;2.33;;;;;;;8.71;77.21;99634.09;4135500;28;19917;-69
2022/07/17 00:48:02;;;;;;;4.32;2.33;;;;;;;8.69;77.76;99628.13;4136585;28;20030;-69
2022/07/17 00:50:02;;;;;;;6.72;2.60;;;;;;;8.69;76.83;99628.13;4134993;28;20046;-69
2022/07/17 00:52:03;;;;;;;3.95;2.30;;;;;;;8.65;76.08;99621.66;4135095;28;20024;-69
2022/07/17 00:54:04;;;;;;;4.40;2.25;;;;;;;8.61;76.64;99629.00;4134220;28;20367;-69
2022/07/17 00:56:06;;;;;;;2.33;2.00;;;;;;;8.50;77.01;99612.03;4134903;28;20312;-69
2022/07/17 00:58:08;;;;;;;3.67;2.17;;;;;;;8.47;77.00;99622.94;4121633;28;20022;-69
2022/07/17 01:00:10;;;;;;;2.78;2.05;;;;;;;8.44;76.69;99616.97;4123838;28;20097;-69
2022/07/17 01:02:13;;;;;;;3.83;2.25;;;;;;;8.44;76.72;99611.44;4135299;28;20030;-69
2022/07/17 01:04:13;;;;;;;3.03;2.10;;;;;;;8.43;77.13;99620.03;4135662;28;20026;-68
2022/07/17 01:06:14;;;;;;;4.80;2.50;;;;;;;8.44;77.25;99616.97;4135087;28;20037;-69
2022/07/17 01:08:14;;;;;;;4.72;2.08;;;;;;;8.64;74.26;99620.03;4136525;28;20406;-69
2022/07/17 01:10:17;;;;;;;6.55;2.20;;;;;;;8.86;73.04;99619.69;4134309;28;20080;-69
2022/07/17 01:12:17;;;;;;;7.50;2.20;;;;;;;9.05;73.03;99623.91;4137338;28;20501;-69
2022/07/17 01:14:18;;;;;;;5.95;2.35;;;;;;;9.06;72.03;99617.22;4137438;28;20060;-68
2022/07/17 01:16:19;;;;;;;4.10;2.28;;;;;;;8.94;71.75;99631.81;4137586;28;20458;-69
2022/07/17 01:18:20;;;;;;;3.30;2.30;;;;;;;8.82;72.67;99626.22;4136118;28;20057;-69
2022/07/17 01:20:20;;;;;;;4.32;2.05;;;;;;;8.75;72.23;99625.94;4135482;28;20030;-69
2022/07/17 01:22:21;;;;;;;4.70;2.03;;;;;;;8.65;72.89;99616.94;4137194;28;20533;-68
2022/07/17 01:24:21;;;;;;;5.55;1.98;;;;;;;8.73;71.01;99624.34;4136089;28;20597;-69
2022/07/17 01:26:22;;;;;;;3.63;2.13;;;;;;;8.86;69.95;99611.41;4136789;28;20510;-69
2022/07/17 01:28:22;;;;;;;5.63;2.42;;;;;;;8.84;70.11;99624.72;4136393;28;20046;-69
2022/07/17 01:30:23;;;;;;;6.28;2.22;;;;;;;8.69;71.03;99619.84;4133525;28;20152;-69
2022/07/17 01:32:34;;;;;;;5.07;2.20;;;;;;;8.48;72.07;99622.59;4136344;28;20038;-69
2022/07/17 01:34:34;;;;;;;6.05;2.50;;;;;;;8.34;72.97;99633.03;4135802;28;20148;-68
2022/07/17 01:36:36;;;;;;;5.85;2.42;;;;;;;8.24;71.93;99628.75;4138305;28;20340;-68
2022/07/17 01:38:36;;;;;;;7.97;2.30;;;;;;;8.11;73.73;99624.31;4134288;28;20447;-68
2022/07/17 01:40:40;;;;;;;6.05;3.20;;;;;;;7.95;74.85;99628.78;4136881;28;20508;-68
2022/07/17 01:42:47;;;;;;;5.95;2.20;;;;;;;7.79;75.93;99623.81;4135063;28;20046;-69
2022/07/17 01:44:48;;;;;;;4.82;2.47;;;;;;;7.64;77.52;99627.13;4126786;28;20039;-68
2022/07/17 01:46:48;;;;;;;5.78;2.17;;;;;;;7.56;78.35;99627.97;4136157;28;20054;-68
2022/07/17 01:48:49;;;;;;;4.97;2.00;;;;;;;7.52;79.03;99624.25;4135248;28;20050;-69
2022/07/17 01:50:49;;;;;;;12.80;2.72;;;;;;;7.55;76.84;99637.38;4134041;28;20049;-68
2022/07/17 01:52:50;;;;;;;4.63;2.40;;;;;;;7.59;77.27;99622.59;4135139;28;20050;-68
2022/07/17 01:54:51;;;;;;;4.90;2.50;;;;;;;7.63;76.49;99619.19;4136042;28;20088;-68
2022/07/17 01:56:51;;;;;;;3.95;2.20;;;;;;;7.50;77.87;99616.31;4135032;28;20293;-68
2022/07/17 01:58:51;;;;;;;6.72;2.55;;;;;;;7.44;78.57;99617.63;4136503;28;20046;-68
2022/07/17 02:01:00;;;;;;;8.48;2.30;;;;;;;7.43;79.82;99624.28;4136068;28;20494;-68
2022/07/17 02:03:00;;;;;;;6.43;2.60;;;;;;;7.38;80.58;99618.97;4136542;28;20046;-68
2022/07/17 02:05:01;;;;;;;6.43;2.40;;;;;;;7.37;79.71;99613.78;4136248;28;20050;-68
2022/07/17 02:07:04;;;;;;;3.22;2.20;;;;;;;7.32;80.54;99612.81;4134240;28;20410;-68
2022/07/17 02:09:04;;;;;;;4.93;2.35;;;;;;;7.23;81.03;99612.03;4135210;28;20478;-68
2022/07/17 02:11:04;;;;;;;3.85;2.55;;;;;;;7.24;79.41;99615.59;4135718;28;20098;-69
2022/07/17 02:13:05;;;;;;;2.88;2.20;;;;;;;7.19;81.09;99621.28;4136244;28;20399;-68
2022/07/17 02:15:05;;;;;;;4.57;2.33;;;;;;;7.18;80.03;99614.97;4136228;28;20379;-68
2022/07/17 02:17:06;;;;;;;5.25;2.45;;;;;;;7.13;81.56;99609.66;4134762;28;20257;-69
2022/07/17 02:19:06;;;;;;;5.82;2.65;;;;;;;7.15;79.72;99617.56;4135154;28;20269;-68
2022/07/17 02:21:07;;;;;;;4.15;2.20;;;;;;;7.12;79.43;99619.03;4135067;28;20092;-68
2022/07/17 02:23:07;;;;;;;3.72;2.30;;;;;;;7.19;77.33;99618.50;4136747;28;20233;-68
2022/07/17 02:25:09;;;;;;;3.28;2.13;;;;;;;7.26;78.04;99619.63;4136084;28;20041;-68
2022/07/17 02:27:10;;;;;;;3.40;2.38;;;;;;;7.31;77.96;99621.41;4134898;28;20313;-68
2022/07/17 02:29:10;;;;;;;6.68;2.40;;;;;;;7.40;76.91;99622.19;4135780;28;20048;-68
2022/07/17 02:31:10;;;;;;;3.05;2.17;;;;;;;7.41;77.01;99623.00;4135605;28;20394;-68
2022/07/17 02:33:11;;;;;;;4.75;2.40;;;;;;;7.36;76.89;99625.91;4135819;28;20037;-68
2022/07/17 02:35:12;;;;;;;3.83;2.40;;;;;;;7.25;78.25;99614.47;4136324;28;20042;-68
2022/07/17 02:37:13;;;;;;;5.15;2.35;;;;;;;7.14;79.41;99618.72;4135326;28;20379;-68
2022/07/17 02:39:13;;;;;;;7.50;2.92;;;;;;;7.03;79.97;99634.72;4134272;28;20053;-68
2022/07/17 02:41:15;;;;;;;6.20;2.75;;;;;;;6.83;81.30;99627.97;4135769;28;20054;-68
2022/07/17 02:43:16;;;;;;;5.43;3.63;;;;;;;6.74;82.39;99629.94;4134966;28;20470;-68
2022/07/17 02:45:18;;;;;;;3.45;2.40;;;;;;;6.69;81.77;99630.06;4135567;28;20157;-68
2022/07/17 02:47:27;;;;;;;7.75;2.20;;;;;;;6.67;80.59;99624.91;4135797;28;20041;-68
2022/07/17 02:49:27;;;;;;;10.98;2.95;;;;;;;6.73;79.65;99633.81;4135480;28;20095;-68
2022/07/17 02:51:27;;;;;;;5.10;2.67;;;;;;;6.74;79.93;99633.50;4135274;28;20125;-68
2022/07/17 02:53:28;;;;;;;4.82;2.60;;;;;;;6.66;81.42;99636.25;4135652;28;20382;-68
2022/07/17 02:55:28;;;;;;;6.40;2.30;;;;;;;6.67;80.73;99635.91;4137500;28;20042;-68
2022/07/17 02:57:28;;;;;;;6.35;2.85;;;;;;;6.66;81.03;99633.50;4134393;28;20072;-68
2022/07/17 02:59:29;;;;;;;8.55;2.80;;;;;;;6.64;80.45;99636.56;4135619;28;20049;-68
2022/07/17 03:01:29;;;;;;;4.68;2.70;;;;;;;6.59;81.14;99639.47;4134648;28;20046;-68
2022/07/17 03:03:30;;;;;;;9.75;3.15;;;;;;;6.53;82.69;99638.00;4134472;28;20611;-68
2022/07/17 03:05:30;;;;;;;6.35;2.60;;;;;;;6.50;83.34;99643.34;4136080;28;20117;-68
2022/07/17 03:07:30;;;;;;;7.63;2.53;;;;;;;6.41;82.00;99630.41;4133206;28;20034;-68
2022/07/17 03:09:31;;;;;;;3.60;2.20;;;;;;;6.38;83.10;99642.06;4135428;28;20030;-68
2022/07/17 03:11:31;;;;;;;5.40;2.28;;;;;;;6.28;84.22;99627.78;4134680;28;20041;-68
2022/07/17 03:13:31;;;;;;;2.55;2.10;;;;;;;6.26;83.85;99643.81;4135131;28;20054;-68
2022/07/17 03:15:32;;;;;;;5.53;2.33;;;;;;;6.23;83.72;99631.53;4136115;28;20044;-68
2022/07/17 03:17:33;;;;;;;5.60;2.38;;;;;;;6.30;81.08;99637.34;4134186;28;20084;-68
2022/07/17 03:19:33;;;;;;;5.13;2.10;;;;;;;6.34;81.04;99648.50;4134513;28;20466;-68
2022/07/17 03:21:37;;;;;;;4.38;2.60;;;;;;;6.31;81.92;99646.41;4135507;28;20954;-68
2022/07/17 03:23:38;;;;;;;7.88;3.17;;;;;;;6.27;82.05;99651.72;4135811;28;20038;-68
2022/07/17 03:25:38;;;;;;;9.40;2.63;;;;;;;6.22;82.09;99643.66;4135676;28;20057;-68
2022/07/17 03:27:38;;;;;;;4.55;2.60;;;;;;;6.23;82.03;99642.53;4134896;28;20580;-68
2022/07/17 03:29:39;;;;;;;3.92;2.33;;;;;;;6.20;82.87;99645.88;4135911;28;20077;-68
2022/07/17 03:31:39;;;;;;;7.38;2.40;;;;;;;6.15;82.95;99635.06;4133828;28;20050;-68
2022/07/17 03:33:40;;;;;;;6.28;2.40;;;;;;;6.13;83.35;99635.41;4135165;28;20058;-68
2022/07/17 03:35:40;;;;;;;6.57;3.15;;;;;;;6.12;83.31;99636.53;4134952;28;20089;-68
2022/07/17 03:37:43;;;;;;;7.53;2.40;;;;;;;6.12;84.67;99627.44;4136157;28;20368;-68
2022/07/17 03:39:43;;;;;;;;;;;;;;;6.11;83.56;99634.06;4133763;28;20760;-68
2022/07/17 03:41:43;;;;;;;9.50;2.45;;;;;;;6.06;83.14;99635.06;4135019;28;19920;-68
2022/07/17 03:43:44;;;;;;;3.20;2.05;;;;;;;6.06;84.09;99632.31;4135052;28;20053;-68
2022/07/17 03:45:44;;;;;;;5.00;2.45;;;;;;;6.05;83.90;99638.13;4135162;28;20441;-68
2022/07/17 03:47:44;;;;;;;4.38;1.92;;;;;;;6.05;82.23;99641.69;4135387;28;20425;-68
2022/07/17 03:49:45;;;;;;;5.63;2.88;;;;;;;6.07;82.54;99639.41;4134110;28;20779;-68
2022/07/17 03:51:45;;;;;;;3.67;2.13;;;;;;;6.18;80.80;99637.97;4135506;28;20148;-68
2022/07/17 03:53:45;;;;;;;3.25;2.20;;;;;;;6.26;80.70;99643.81;4135062;28;20077;-68
2022/07/17 03:55:46;;;;;;;6.28;2.45;;;;;;;6.25;81.18;99636.69;4135341;28;20536;-68
2022/07/17 03:57:46;;;;;;;5.72;2.20;;;;;;;6.26;80.24;99635.56;4135874;28;20085;-68
2022/07/17 03:59:46;;;;;;;6.35;2.70;;;;;;;6.24;81.65;99643.31;4133029;28;20278;-68
2022/07/17 04:01:47;;;;;;;8.43;2.50;;;;;;;6.18;81.66;99640.72;4134975;28;20131;-68
2022/07/17 04:03:48;;;;;;;8.05;2.60;;;;;;;6.13;82.53;99651.06;4134746;28;20053;-68
2022/07/17 04:05:48;;;;;;;6.70;2.53;;;;;;;6.01;84.47;99654.41;4134041;28;20482;-68
2022/07/17 04:07:48;;;;;;;5.55;2.42;;;;;;;5.99;84.98;99645.69;4135058;28;20085;-68
2022/07/17 04:09:49;;;;;;;4.57;2.42;;;;;;;6.01;84.85;99648.13;4132861;28;20073;-68
2022/07/17 04:11:49;;;;;;;5.13;2.28;;;;;;;6.04;84.11;99659.28;4135664;28;20068;-68
2022/07/17 04:13:49;;;;;;;4.15;2.40;;;;;;;6.08;84.42;99659.44;4137489;28;20072;-68
2022/07/17 04:15:52;;;;;;;4.05;2.42;;;;;;;6.13;84.80;99656.56;4138598;28;20064;-68
2022/07/17 04:17:52;;;;;;;8.50;2.88;;;;;;;6.16;84.21;99653.16;4137789;28;20382;-68
2022/07/17 04:19:53;;;;;;;5.72;2.58;;;;;;;6.20;84.98;99660.44;4136444;28;20050;-68
2022/07/17 04:21:53;;;;;;;6.22;2.50;;;;;;;6.31;83.21;99665.66;4136074;28;20627;-68
2022/07/17 04:23:54;;;;;;;10.32;4.63;;;;;;;6.45;83.10;99661.63;4137871;28;20046;-68
2022/07/17 04:25:55;;;;;;;3.17;2.17;;;;;;;6.53;83.66;99660.00;4138362;28;20100;-68
2022/07/17 04:27:55;;;;;;;4.22;2.80;;;;;;;6.57;83.64;99652.75;4137410;28;20050;-68
2022/07/17 04:29:56;;;;;;;4.13;2.55;;;;;;;6.60;83.90;99667.78;4137010;28;20046;-68
2022/07/17 04:31:56;;;;;;;4.00;2.83;;;;;;;6.61;84.23;99667.44;4137490;28;20683;-68
2022/07/17 04:33:56;;;;;;;4.93;2.28;;;;;;;6.67;84.06;99660.66;4137167;28;20046;-68
2022/07/17 04:35:57;;;;;;;6.93;3.17;;;;;;;6.79;82.98;99667.47;4138781;28;20046;-68
2022/07/17 04:37:57;;;;;;;5.55;2.70;;;;;;;6.87;82.61;99664.72;4135180;28;20398;-68
2022/07/17 04:39:57;;;;;;;3.15;2.25;;;;;;;6.96;82.62;99668.28;4136940;28;20310;-68
2022/07/17 04:41:58;;;;;;;7.88;3.00;;;;;;;7.07;82.43;99673.44;4137798;28;20360;-68
2022/07/17 04:43:58;;;;;;;5.78;2.45;;;;;;;7.17;82.39;99670.34;4137348;28;20808;-68
2022/07/17 04:45:58;;;;;;;3.58;2.25;;;;;;;7.26;82.21;99668.38;4135764;28;20046;-68
2022/07/17 04:48:00;;;;;;;4.25;2.88;;;;;;;7.38;82.28;99676.78;4136203;28;20038;-68
2022/07/17 04:50:00;;;;;;;3.78;2.53;;;;;;;7.47;80.52;99668.50;4137087;28;20440;-68
2022/07/17 04:52:01;;;;;;;4.55;2.42;;;;;;;7.57;80.41;99679.97;4137387;28;20050;-68
2022/07/17 04:54:01;;;;;;;4.55;2.45;;;;;;;7.69;80.33;99678.44;4137303;28;20096;-68
2022/07/17 04:56:02;;;;;;;3.17;2.30;;;;;;;7.85;79.43;99680.34;4136762;28;20030;-69
2022/07/17 04:58:02;;;;;;;5.55;2.08;;;;;;;7.97;79.56;99689.88;4137676;28;20041;-69
2022/07/17 05:00:07;;;;;;;8.38;2.63;;;;;;;8.13;77.41;99680.69;4135475;28;20378;-68
2022/07/17 05:02:07;;;;;;;6.35;2.17;;;;;;;8.29;77.22;99691.16;4136840;28;20064;-68
2022/07/17 05:04:08;;;;;;;5.45;2.42;;;;;;;8.38;78.02;99684.47;4137828;28;20065;-68
2022/07/17 05:06:09;;;;;;;5.45;2.47;;;;;;;8.49;78.90;99686.84;4135562;28;20477;-68
2022/07/17 05:08:09;;;;;;;4.30;2.03;;;;;;;8.58;77.88;99682.88;4137229;28;20068;-68
2022/07/17 05:10:10;;;;;;;4.55;2.35;;;;;;;8.68;76.53;99690.75;4135179;28;20037;-68
2022/07/17 05:12:10;;;;;;;4.43;2.15;;;;;;;8.79;76.62;99682.91;4135145;28;20374;-68
2022/07/17 05:14:11;;;;;;;4.82;2.63;;;;;;;8.89;76.52;99682.47;4136914;28;20510;-68
2022/07/17 05:16:11;;;;;;;6.68;2.38;;;;;;;9.01;76.03;99688.03;4136121;28;20029;-68
2022/07/17 05:18:11;;;;;;;2.75;2.13;;;;;;;9.10;77.02;99681.66;4136357;28;20051;-68
2022/07/17 05:20:12;;;;;;;4.95;2.40;;;;;;;9.18;76.60;99689.84;4136406;28;20033;-68
2022/07/17 05:22:12;;;;;;;6.10;2.58;;;;;;;9.25;75.98;99689.31;4136837;28;20041;-68
2022/07/17 05:24:13;;;;;;;5.72;2.90;;;;;;;9.33;76.27;99696.69;4079653;28;20493;-68
2022/07/17 05:26:13;;;;;;;6.25;3.20;;;;;;;9.38;75.62;99682.69;4136061;28;20065;-68
2022/07/17 05:28:13;;;;;;;8.77;3.65;;;;;;;9.49;75.90;99696.84;4135777;28;20029;-68
2022/07/17 05:30:14;;;;;;;6.20;2.60;;;;;;;9.51;76.29;99702.84;4135193;28;20282;-68
2022/07/17 05:32:14;;;;;;;6.43;2.50;;;;;;;9.60;76.45;99700.81;4136296;28;20041;-68
2022/07/17 05:34:14;;;;;;;6.70;3.70;;;;;;;9.66;76.65;99701.38;4136751;28;20030;-68
2022/07/17 05:36:15;;;;;;;4.82;2.90;;;;;;;9.74;76.16;99703.25;4135503;28;20039;-68
2022/07/17 05:38:18;;;;;;;5.75;3.08;;;;;;;9.79;76.26;99698.31;4136831;28;20061;-68
2022/07/17 05:40:19;;;;;;;5.32;2.65;;;;;;;9.86;74.84;99692.22;4136350;28;20466;-68
2022/07/17 05:42:19;;;;;;;3.42;2.60;;;;;;;9.99;75.97;99698.56;4136231;28;20041;-68
2022/07/17 05:44:19;;;;;;;5.55;2.72;;;;;;;10.10;75.96;99703.31;4135079;28;20025;-68
2022/07/17 05:46:20;;;;;;;4.68;2.75;;;;;;;10.19;75.07;99692.13;4136228;28;20113;-68
2022/07/17 05:48:20;;;;;;;11.63;3.78;;;;;;;10.32;75.12;99696.53;4135896;28;20067;-68
2022/07/17 05:50:21;;;;;;;8.10;2.85;;;;;;;10.41;75.75;99707.47;4135675;28;20042;-68
2022/07/17 05:52:21;;;;;;;5.72;2.85;;;;;;;10.51;74.71;99700.66;4137037;28;20054;-68
2022/07/17 05:54:22;;;;;;;6.72;2.88;;;;;;;10.59;73.89;99695.00;4136527;28;20042;-68
2022/07/17 05:56:23;;;;;;;5.15;2.90;;;;;;;10.71;75.92;99705.25;4135752;28;20977;-69
2022/07/17 05:58:23;;;;;;;3.85;2.33;;;;;;;10.80;74.74;99702.34;4136036;28;20431;-68
2022/07/17 06:00:24;;;;;;;4.78;2.30;;;;;;;10.89;73.18;99705.78;4136215;28;20308;-69
2022/07/17 06:02:24;;;;;;;4.97;2.20;;;;;;;11.04;72.91;99695.94;4134684;28;20042;-68
2022/07/17 06:04:25;;;;;;;5.82;2.25;;;;;;;11.12;72.13;99692.22;4135644;28;20038;-69
2022/07/17 06:06:25;;;;;;;4.25;2.35;;;;;;;11.23;72.59;99685.00;4136238;28;20923;-69
2022/07/17 06:08:25;;;;;;;3.03;2.00;;;;;;;11.34;72.18;99682.53;4134427;28;20038;-69
2022/07/17 06:10:27;;;;;;;4.25;2.20;;;;;;;11.42;71.41;99687.09;4136686;28;20072;-69
2022/07/17 06:12:27;;;;;;;4.63;1.88;;;;;;;11.49;70.96;99679.78;4134902;28;21561;-69
2022/07/17 06:14:28;;;;;;;2.95;2.17;;;;;;;11.59;69.63;99689.56;4135274;28;20042;-69
2022/07/17 06:16:28;;;;;;;2.83;1.92;;;;;;;11.65;68.70;99671.47;4135907;28;20768;-69
2022/07/17 06:18:28;;;;;;;3.53;2.40;;;;;;;11.79;68.67;99674.63;4133437;28;20045;-69
2022/07/17 06:20:29;;;;;;;4.40;2.25;;;;;;;11.91;68.23;99676.53;4135014;28;20408;-69
2022/07/17 06:22:29;;;;;;;4.70;2.20;;;;;;;12.00;68.54;99668.88;4135112;28;20045;-69
2022/07/17 06:24:30;;;;;;;3.75;2.03;;;;;;;12.09;67.92;99669.47;4135728;28;20069;-69
2022/07/17 06:26:30;;;;;;;3.88;2.00;;;;;;;12.20;66.57;99668.94;4133941;28;20542;-69
2022/07/17 06:28:30;;;;;;;3.85;1.95;;;;;;;12.32;67.48;99666.03;4134246;28;20530;-69
2022/07/17 06:30:31;;;;;;;4.57;1.90;;;;;;;12.39;66.11;99671.75;4135674;28;20073;-69
2022/07/17 06:32:31;;;;;;;3.05;1.75;;;;;;;12.46;66.56;99680.25;4136078;28;20141;-69
2022/07/17 06:34:38;;;;;;;9.20;2.58;;;;;;;12.47;65.78;99694.94;4135558;28;20037;-69
2022/07/17 06:36:38;;;;;;;3.08;1.90;;;;;;;12.46;65.74;99705.22;4137321;28;20168;-69
2022/07/17 06:38:38;;;;;;;10.15;1.90;;;;;;;12.54;66.08;99708.97;4136143;28;20073;-69
2022/07/17 06:40:39;;;;;;;6.10;2.10;;;;;;;12.61;65.07;99714.69;4135431;28;20125;-69
2022/07/17 06:42:42;;;;;;;4.80;2.10;;;;;;;12.72;65.44;99706.59;4135554;28;20434;-69
2022/07/17 06:44:43;;;;;;;3.53;1.73;;;;;;;12.84;64.96;99709.28;4135161;28;20305;-69
2022/07/17 06:46:43;;;;;;;2.83;1.88;;;;;;;12.94;64.60;99723.38;4134216;28;20064;-69
2022/07/17 06:48:44;;;;;;;7.70;1.85;;;;;;;13.05;63.90;99717.25;4130513;28;20392;-69
2022/07/17 06:50:44;;;;;;;2.95;2.42;;;;;;;13.14;63.06;99721.41;4133649;28;20460;-69
2022/07/17 06:52:45;;;;;;;3.70;1.65;;;;;;;13.28;62.26;99720.94;4136285;28;20088;-69
2022/07/17 06:54:45;;;;;;;2.28;1.48;;;;;;;13.37;62.78;99710.41;4135157;28;20469;-69
2022/07/17 06:56:46;;;;;;;3.47;1.42;;;;;;;13.44;61.63;99707.75;4135078;28;20451;-69
2022/07/17 06:58:46;;;;;;;3.15;1.70;;;;;;;13.53;62.10;99699.19;4135304;28;20533;-69
2022/07/17 07:00:46;;;;;;;5.00;1.98;;;;;;;13.63;61.37;99698.59;4135332;28;20372;-69
2022/07/17 07:02:47;;;;;;;2.65;1.30;;;;;;;13.75;61.00;99711.53;4136399;28;20054;-69
2022/07/17 07:04:47;;;;;;;2.83;1.60;;;;;;;13.84;60.75;99698.19;4134347;28;20064;-69
2022/07/17 07:06:48;;;;;;;7.28;1.70;;;;;;;13.96;60.01;99692.41;4135399;28;20352;-69
2022/07/17 07:08:48;;;;;;;3.83;1.20;;;;;;;14.06;59.38;99686.22;4135368;28;20224;-69
2022/07/17 07:10:48;;;;;;;2.88;1.42;;;;;;;14.17;60.07;99697.56;4135931;28;20425;-69
2022/07/17 07:12:49;;;;;;;6.72;1.70;;;;;;;14.28;59.74;99700.50;4133833;28;20042;-69
2022/07/17 07:14:49;;;;;;;2.80;1.42;;;;;;;14.38;57.90;99699.88;4135411;28;20042;-69
2022/07/17 07:16:49;;;;;;;4.30;2.17;;;;;;;14.50;57.69;99699.69;4135471;28;20136;-69
2022/07/17 07:18:50;;;;;;;3.20;1.55;;;;;;;14.63;56.93;99696.69;4135276;28;20038;-69
2022/07/17 07:20:50;;;;;;;4.32;1.38;;;;;;;14.74;57.64;99680.94;4135975;28;20129;-69
2022/07/17 07:22:51;;;;;;;3.65;1.63;;;;;;;14.82;57.15;99680.66;4136243;28;20038;-69
2022/07/17 07:24:51;;;;;;;4.75;1.65;;;;;;;14.94;57.69;99682.41;4134390;28;20046;-69
2022/07/17 07:26:51;;;;;;;4.75;1.48;;;;;;;15.02;56.58;99672.16;4135517;28;20490;-69
2022/07/17 07:28:52;;;;;;;3.22;1.40;;;;;;;15.09;57.15;99677.81;4133987;28;20105;-69
2022/07/17 07:30:52;;;;;;;5.78;1.63;;;;;;;15.20;55.64;99677.94;4135959;28;20053;-69
2022/07/17 07:32:53;;;;;;;3.15;1.40;;;;;;;15.27;54.75;99681.63;4134315;28;20072;-69
2022/07/17 07:34:54;;;;;;;3.80;1.40;;;;;;;15.34;54.29;99684.50;4134858;28;20334;-69
2022/07/17 07:36:55;;;;;;;3.63;1.50;;;;;;;15.49;54.05;99688.25;4136901;28;20042;-69
2022/07/17 07:38:55;;;;;;;4.88;1.50;;;;;;;15.59;53.16;99687.56;4134650;28;20148;-69
2022/07/17 07:40:57;;;;;;;2.97;1.33;;;;;;;15.67;52.97;99688.47;4131921;28;20046;-69
2022/07/17 07:42:57;;;;;;;4.25;1.20;;;;;;;15.76;52.67;99677.00;4134509;28;20372;-69
2022/07/17 07:44:58;;;;;;;4.97;1.58;;;;;;;15.84;52.32;99667.50;4135038;28;20048;-69
2022/07/17 07:46:58;;;;;;;4.75;1.60;;;;;;;15.90;52.79;99668.75;4135513;28;20042;-69
2022/07/17 07:48:59;;;;;;;2.83;1.17;;;;;;;15.93;52.06;99657.63;4137088;28;20251;-69
2022/07/17 07:50:59;;;;;;;7.18;1.75;;;;;;;15.97;52.25;99652.88;4129180;28;20041;-69
2022/07/17 07:53:00;;;;;;;5.93;1.77;;;;;;;16.04;52.26;99656.91;4130855;28;20420;-69
2022/07/17 07:55:00;;;;;;;2.80;1.52;;;;;;;16.09;52.40;99660.16;4146050;28;20049;-69
2022/07/17 07:57:00;;;;;;;6.55;2.30;;;;;;;16.17;52.62;99655.41;4138399;28;20053;-69
2022/07/17 07:59:01;;;;;;;3.88;1.30;;;;;;;16.25;52.07;99652.28;4138157;28;20038;-69
2022/07/17 08:01:01;;;;;;;5.28;1.38;;;;;;;16.36;51.74;99648.78;4138944;28;20096;-69
2022/07/17 08:03:02;;;;;;;2.55;1.65;;;;;;;16.56;51.63;99650.13;4138781;28;20500;-69
2022/07/17 08:05:03;;;;;;;2.00;1.30;;;;;;;16.62;50.94;99653.31;4138656;28;20302;-69
2022/07/17 08:07:04;;;;;;;3.75;1.38;;;;;;;16.73;50.98;99673.78;4137477;28;20052;-69
2022/07/17 08:09:07;;;;;;;5.60;1.27;;;;;;;16.76;50.91;99675.78;4137554;28;20041;-69
2022/07/17 08:11:08;;;;;;;3.92;1.60;;;;;;;16.92;52.02;99672.69;4138106;28;20045;-70
2022/07/17 08:13:09;;;;;;;3.15;1.17;;;;;;;17.07;48.98;99668.78;4136144;28;20164;-70
2022/07/17 08:15:10;;;;;;;4.55;1.48;;;;;;;17.25;49.44;99675.22;4138222;28;20304;-69
2022/07/17 08:17:10;;;;;;;3.42;1.38;;;;;;;17.31;48.52;99670.88;4137965;28;20072;-70
2022/07/17 08:19:11;;;;;;;3.20;1.40;;;;;;;17.27;48.69;99667.22;4137411;28;20560;-69
2022/07/17 08:21:11;;;;;;;4.00;1.27;;;;;;;17.41;48.08;99672.88;4137356;28;20145;-69
2022/07/17 08:23:12;;;;;;;7.10;1.55;;;;;;;17.49;48.20;99670.91;4136463;28;20452;-70
2022/07/17 08:25:13;;;;;;;3.78;1.30;;;;;;;17.59;48.90;99669.31;4137744;28;20272;-70
2022/07/17 08:27:13;;;;;;;3.92;1.45;;;;;;;17.61;47.83;99664.94;4138567;28;20069;-70
2022/07/17 08:29:15;;;;;;;2.70;1.40;;;;;;;17.61;48.35;99670.53;4137892;28;20050;-70
2022/07/17 08:31:16;;;;;;;2.72;1.10;;;;;;;17.63;47.37;99670.94;4137076;28;20046;-70
2022/07/17 08:33:17;;;;;;;3.70;1.20;;;;;;;17.66;48.24;99661.75;4138294;28;20080;-70
2022/07/17 08:35:18;;;;;;;5.67;1.30;;;;;;;17.91;48.43;99666.63;4136958;28;20041;-70
2022/07/17 08:37:18;;;;;;;2.25;1.25;;;;;;;18.03;47.65;99666.22;4136966;28;20534;-70
2022/07/17 08:39:19;;;;;;;5.55;1.13;;;;;;;18.13;47.74;99664.63;4137171;28;20046;-70
2022/07/17 08:41:22;;;;;;;4.50;1.27;;;;;;;18.17;46.53;99663.41;4136560;28;20076;-70
2022/07/17 08:43:25;;;;;;;2.80;1.17;;;;;;;18.17;46.62;99666.22;4138880;28;20128;-70
2022/07/17 08:45:27;;;;;;;3.60;1.65;;;;;;;18.22;46.74;99665.81;4137519;28;20689;-70
2022/07/17 08:47:27;;;;;;;2.92;1.05;;;;;;;18.25;45.95;99659.41;4138874;28;20636;-70
2022/07/17 08:49:28;;;;;;;1.40;0.77;;;;;;;18.24;46.04;99651.41;4136645;28;20077;-70
2022/07/17 08:51:28;;;;;;;9.88;4.38;;;;;;;18.32;45.08;99657.81;4137735;28;20485;-70
2022/07/17 08:53:29;;;;;;;3.83;1.35;;;;;;;18.43;45.81;99667.00;4137237;28;20038;-70
2022/07/17 08:55:30;;;;;;;3.75;1.25;;;;;;;18.46;45.12;99657.81;4137727;28;20037;-70
2022/07/17 08:57:30;;;;;;;3.58;1.25;;;;;;;18.43;44.57;99669.78;4138691;28;20596;-70
2022/07/17 08:59:31;;;;;;;10.25;1.92;;;;;;;18.46;45.23;99663.41;4135156;28;20433;-70
2022/07/17 09:01:31;;;;;;;4.15;1.20;;;;;;;18.58;43.83;99668.56;4137695;28;20085;-70
2022/07/17 09:03:32;;;;;;;3.72;1.70;;;;;;;18.68;43.52;99666.97;4138089;28;20060;-70
2022/07/17 09:05:35;;;;;;;4.60;1.77;;;;;;;18.72;43.85;99667.78;4138061;28;20152;-70
2022/07/17 09:07:46;;;;;;;3.63;1.50;;;;;;;18.66;43.75;99664.59;4136851;28;20132;-70
2022/07/17 09:09:51;;;;;;;3.03;1.30;;;;;;;18.67;43.63;99666.19;4135893;28;20084;-70
2022/07/17 09:11:52;;;;;;;4.50;1.40;;;;;;;18.66;44.08;99666.59;4137404;28;20070;-70
2022/07/17 09:13:53;;;;;;;5.78;1.10;;;;;;;18.60;44.35;99654.94;4138275;28;20856;-70
2022/07/17 09:15:59;;;;;;;10.77;7.80;;;;;;;18.72;43.81;99664.97;4138120;28;20455;-70
2022/07/17 09:17:59;;;;;;;4.32;2.20;;;;;;;18.78;42.01;99658.56;4137764;28;20475;-70
2022/07/17 09:20:00;;;;;;;5.43;1.30;;;;;;;18.79;42.02;99656.56;4137314;28;20172;-70
2022/07/17 09:22:14;;;;;;;4.68;2.10;;;;;;;18.93;41.46;99658.50;4137198;28;20053;-70
2022/07/17 09:24:14;;;;;;;7.57;5.28;;;;;;;19.03;40.79;99654.84;4135778;28;20049;-70
2022/07/17 09:26:15;;;;;;;3.10;1.02;;;;;;;19.01;41.29;99644.03;4137300;28;20029;-70
2022/07/17 09:28:16;;;;;;;6.85;3.38;;;;;;;19.24;41.31;99653.97;4136972;28;20471;-70
2022/07/17 09:30:17;;;;;;;2.97;1.02;;;;;;;19.14;40.49;99647.22;4134860;28;20066;-70
2022/07/17 09:32:21;;;;;;;5.47;1.30;;;;;;;19.17;40.90;99648.38;4137203;28;20092;-70
2022/07/17 09:34:23;;;;;;;3.22;1.80;;;;;;;19.26;40.57;99643.13;4137026;28;20396;-70